sensor_id;sensor_type;location;lat;lon;timestamp;temperature;humidity
16999;DHT22;10211;49.476;11.010;2023-04-03T00:01:27;3.60;99.90
16999;DHT22;10211;49.476;11.010;2023-04-03T00:03:54;3.60;99.90
16999;DHT22;10211;49.476;11.010;2023-04-03T00:06:21;3.60;99.90
16999;DHT22;10211;49.476;11.010;2023-04-03T00:08:50;3.60;99.90
16999;DHT22;10211;49.476;11.010;2023-04-03T00:11:17;3.60;99.90
16999;DHT22;10211;49.476;11.010;2023-04-03T00:13:44;3.50;99.90
16999;DHT22;10211;49.476;11.010;2023-04-03T00:16:11;3.50;99.90
16999;DHT22;10211;49.476;11.010;2023-04-03T00:18:39;3.40;99.90
16999;DHT22;10211;49.476;11.010;2023-04-03T00:21:07;3.40;99.90
16999;DHT22;10211;49.476;11.010;2023-04-03T00:23:34;3.40;99.90
16999;DHT22;10211;49.476;11.010;2023-04-03T00:26:02;3.40;99.90
16999;DHT22;10211;49.476;11.010;2023-04-03T00:28:29;3.40;99.90
16999;DHT22;10211;49.476;11.010;2023-04-03T00:30:56;3.30;99.90
16999;DHT22;10211;49.476;11.010;2023-04-03T00:33:23;3.30;99.90
16999;DHT22;10211;49.476;11.010;2023-04-03T00:35:50;3.30;99.90
16999;DHT22;10211;49.476;11.010;2023-04-03T00:38:17;3.20;99.90
16999;DHT22;10211;49.476;11.010;2023-04-03T00:40:47;3.20;99.90
16999;DHT22;10211;49.476;11.010;2023-04-03T00:43:18;3.20;99.90
16999;DHT22;10211;49.476;11.010;2023-04-03T00:45:46;3.20;99.90
16999;DHT22;10211;49.476;11.010;2023-04-03T00:48:16;3.30;99.90
16999;DHT22;10211;49.476;11.010;2023-04-03T00:50:44;3.20;99.90
16999;DHT22;10211;49.476;11.010;2023-04-03T00:53:13;3.20;99.90
16999;DHT22;10211;49.476;11.010;2023-04-03T00:55:41;3.20;99.90
16999;DHT22;10211;49.476;11.010;2023-04-03T00:58:09;3.20;99.90
16999;DHT22;10211;49.476;11.010;2023-04-03T01:00:40;3.20;99.90
16999;DHT22;10211;49.476;11.010;2023-04-03T01:03:08;3.20;99.90
16999;DHT22;10211;49.476;11.010;2023-04-03T01:05:35;3.10;99.90
16999;DHT22;10211;49.476;11.010;2023-04-03T01:08:02;3.10;99.90
16999;DHT22;10211;49.476;11.010;2023-04-03T01:10:29;3.10;99.90
16999;DHT22;10211;49.476;11.010;2023-04-03T01:12:56;3.00;99.90
16999;DHT22;10211;49.476;11.010;2023-04-03T01:15:25;3.00;99.90
16999;DHT22;10211;49.476;11.010;2023-04-03T01:17:56;3.10;99.90
16999;DHT22;10211;49.476;11.010;2023-04-03T01:26:28;3.10;99.90
16999;DHT22;10211;49.476;11.010;2023-04-03T01:28:55;3.10;99.90
16999;DHT22;10211;49.476;11.010;2023-04-03T01:31:25;3.10;99.90
16999;DHT22;10211;49.476;11.010;2023-04-03T01:33:54;3.00;99.90
16999;DHT22;10211;49.476;11.010;2023-04-03T01:36:23;3.00;99.90
16999;DHT22;10211;49.476;11.010;2023-04-03T01:38:50;2.90;99.90
16999;DHT22;10211;49.476;11.010;2023-04-03T01:41:18;2.90;99.90
16999;DHT22;10211;49.476;11.010;2023-04-03T01:43:46;2.90;99.90
16999;DHT22;10211;49.476;11.010;2023-04-03T01:46:13;2.80;99.90
16999;DHT22;10211;49.476;11.010;2023-04-03T01:48:40;2.80;99.90
16999;DHT22;10211;49.476;11.010;2023-04-03T01:51:08;2.90;99.90
16999;DHT22;10211;49.476;11.010;2023-04-03T01:53:35;2.70;99.90
16999;DHT22;10211;49.476;11.010;2023-04-03T01:56:03;2.70;99.90
16999;DHT22;10211;49.476;11.010;2023-04-03T01:58:30;2.70;99.90
16999;DHT22;10211;49.476;11.010;2023-04-03T02:00:57;2.60;99.90
16999;DHT22;10211;49.476;11.010;2023-04-03T02:03:23;2.50;99.90
16999;DHT22;10211;49.476;11.010;2023-04-03T02:05:50;2.50;99.90
16999;DHT22;10211;49.476;11.010;2023-04-03T02:08:19;2.50;99.90
16999;DHT22;10211;49.476;11.010;2023-04-03T02:10:47;2.40;99.90
16999;DHT22;10211;49.476;11.010;2023-04-03T02:13:14;2.40;99.90
16999;DHT22;10211;49.476;11.010;2023-04-03T02:15:41;2.30;99.90
16999;DHT22;10211;49.476;11.010;2023-04-03T02:18:08;2.30;99.90
16999;DHT22;10211;49.476;11.010;2023-04-03T02:20:35;2.20;99.90
16999;DHT22;10211;49.476;11.010;2023-04-03T02:23:02;2.20;99.90
16999;DHT22;10211;49.476;11.010;2023-04-03T02:25:32;2.20;99.90
16999;DHT22;10211;49.476;11.010;2023-04-03T02:27:59;2.20;99.90
16999;DHT22;10211;49.476;11.010;2023-04-03T02:30:26;2.10;99.90
16999;DHT22;10211;49.476;11.010;2023-04-03T02:32:53;2.10;99.90
16999;DHT22;10211;49.476;11.010;2023-04-03T02:35:20;2.10;99.90
16999;DHT22;10211;49.476;11.010;2023-04-03T02:37:47;2.20;99.90
16999;DHT22;10211;49.476;11.010;2023-04-03T02:40:13;2.20;99.90
16999;DHT22;10211;49.476;11.010;2023-04-03T02:42:42;2.20;99.90
16999;DHT22;10211;49.476;11.010;2023-04-03T02:45:10;2.20;99.90
16999;DHT22;10211;49.476;11.010;2023-04-03T02:47:37;2.20;99.90
16999;DHT22;10211;49.476;11.010;2023-04-03T02:50:04;2.10;99.90
16999;DHT22;10211;49.476;11.010;2023-04-03T02:52:31;2.00;99.90
16999;DHT22;10211;49.476;11.010;2023-04-03T02:54:58;2.00;99.90
16999;DHT22;10211;49.476;11.010;2023-04-03T02:57:25;2.00;99.90
16999;DHT22;10211;49.476;11.010;2023-04-03T02:59:53;2.00;99.90
16999;DHT22;10211;49.476;11.010;2023-04-03T03:02:20;1.90;99.90
16999;DHT22;10211;49.476;11.010;2023-04-03T03:04:46;1.80;99.90
16999;DHT22;10211;49.476;11.010;2023-04-03T03:07:13;1.80;99.90
16999;DHT22;10211;49.476;11.010;2023-04-03T03:09:40;1.70;99.90
16999;DHT22;10211;49.476;11.010;2023-04-03T03:12:06;1.60;99.90
16999;DHT22;10211;49.476;11.010;2023-04-03T03:14:33;1.50;99.90
16999;DHT22;10211;49.476;11.010;2023-04-03T03:17:01;1.30;99.90
16999;DHT22;10211;49.476;11.010;2023-04-03T03:19:28;1.20;99.90
16999;DHT22;10211;49.476;11.010;2023-04-03T03:21:55;1.20;99.90
16999;DHT22;10211;49.476;11.010;2023-04-03T03:24:22;1.20;99.90
16999;DHT22;10211;49.476;11.010;2023-04-03T03:26:49;1.30;99.90
16999;DHT22;10211;49.476;11.010;2023-04-03T03:29:16;1.30;99.90
16999;DHT22;10211;49.476;11.010;2023-04-03T03:31:42;1.30;99.90
16999;DHT22;10211;49.476;11.010;2023-04-03T03:34:11;1.40;99.90
16999;DHT22;10211;49.476;11.010;2023-04-03T03:36:38;1.40;99.90
16999;DHT22;10211;49.476;11.010;2023-04-03T03:39:05;1.40;99.90
16999;DHT22;10211;49.476;11.010;2023-04-03T03:41:32;1.40;99.90
16999;DHT22;10211;49.476;11.010;2023-04-03T03:43:59;1.50;99.90
16999;DHT22;10211;49.476;11.010;2023-04-03T03:46:25;1.50;99.90
16999;DHT22;10211;49.476;11.010;2023-04-03T03:48:52;1.60;99.90
16999;DHT22;10211;49.476;11.010;2023-04-03T03:51:20;1.60;99.90
16999;DHT22;10211;49.476;11.010;2023-04-03T03:53:47;1.60;99.90
16999;DHT22;10211;49.476;11.010;2023-04-03T03:56:14;1.70;99.90
16999;DHT22;10211;49.476;11.010;2023-04-03T03:58:41;1.70;99.90
16999;DHT22;10211;49.476;11.010;2023-04-03T04:01:07;1.80;99.90
16999;DHT22;10211;49.476;11.010;2023-04-03T04:03:34;1.80;99.90
16999;DHT22;10211;49.476;11.010;2023-04-03T04:06:01;1.90;99.90
16999;DHT22;10211;49.476;11.010;2023-04-03T04:08:29;1.90;99.90
16999;DHT22;10211;49.476;11.010;2023-04-03T04:10:56;2.00;99.90
16999;DHT22;10211;49.476;11.010;2023-04-03T04:13:23;2.00;99.90
16999;DHT22;10211;49.476;11.010;2023-04-03T04:15:50;2.10;99.90
16999;DHT22;10211;49.476;11.010;2023-04-03T04:18:16;2.20;99.90
16999;DHT22;10211;49.476;11.010;2023-04-03T04:20:45;2.20;99.90
16999;DHT22;10211;49.476;11.010;2023-04-03T04:23:12;2.20;99.90
16999;DHT22;10211;49.476;11.010;2023-04-03T04:25:40;2.20;99.90
16999;DHT22;10211;49.476;11.010;2023-04-03T04:28:07;2.30;99.90
16999;DHT22;10211;49.476;11.010;2023-04-03T04:30:33;2.30;99.90
16999;DHT22;10211;49.476;11.010;2023-04-03T04:33:00;2.30;99.90
16999;DHT22;10211;49.476;11.010;2023-04-03T04:35:27;2.30;99.90
16999;DHT22;10211;49.476;11.010;2023-04-03T04:37:54;2.30;99.90
16999;DHT22;10211;49.476;11.010;2023-04-03T04:40:21;2.30;99.90
16999;DHT22;10211;49.476;11.010;2023-04-03T04:42:49;2.20;99.90
16999;DHT22;10211;49.476;11.010;2023-04-03T04:45:16;2.20;99.90
16999;DHT22;10211;49.476;11.010;2023-04-03T04:47:42;2.10;99.90
16999;DHT22;10211;49.476;11.010;2023-04-03T04:50:10;2.00;99.90
16999;DHT22;10211;49.476;11.010;2023-04-03T04:52:37;2.00;99.90
16999;DHT22;10211;49.476;11.010;2023-04-03T04:55:04;1.90;99.90
16999;DHT22;10211;49.476;11.010;2023-04-03T04:57:31;1.90;99.90
16999;DHT22;10211;49.476;11.010;2023-04-03T04:59:59;1.80;99.90
16999;DHT22;10211;49.476;11.010;2023-04-03T05:02:26;1.80;99.90
16999;DHT22;10211;49.476;11.010;2023-04-03T05:04:52;1.70;99.90
16999;DHT22;10211;49.476;11.010;2023-04-03T05:07:19;1.70;99.90
16999;DHT22;10211;49.476;11.010;2023-04-03T05:09:46;1.60;99.90
16999;DHT22;10211;49.476;11.010;2023-04-03T05:12:13;1.60;99.90
16999;DHT22;10211;49.476;11.010;2023-04-03T05:14:40;1.70;99.90
16999;DHT22;10211;49.476;11.010;2023-04-03T05:17:08;1.70;99.90
16999;DHT22;10211;49.476;11.010;2023-04-03T05:19:34;1.70;99.90
16999;DHT22;10211;49.476;11.010;2023-04-03T05:22:01;1.80;99.90
16999;DHT22;10211;49.476;11.010;2023-04-03T05:24:28;1.80;99.90
16999;DHT22;10211;49.476;11.010;2023-04-03T05:26:55;1.80;99.90
16999;DHT22;10211;49.476;11.010;2023-04-03T05:29:22;1.80;99.90
16999;DHT22;10211;49.476;11.010;2023-04-03T05:31:49;1.80;99.90
16999;DHT22;10211;49.476;11.010;2023-04-03T05:34:17;1.90;99.90
16999;DHT22;10211;49.476;11.010;2023-04-03T05:36:44;1.90;99.90
16999;DHT22;10211;49.476;11.010;2023-04-03T05:39:11;2.00;99.90
16999;DHT22;10211;49.476;11.010;2023-04-03T05:41:37;2.10;99.90
16999;DHT22;10211;49.476;11.010;2023-04-03T05:44:04;2.20;99.90
16999;DHT22;10211;49.476;11.010;2023-04-03T05:46:31;2.30;99.90
16999;DHT22;10211;49.476;11.010;2023-04-03T05:48:58;2.40;99.90
16999;DHT22;10211;49.476;11.010;2023-04-03T05:51:31;2.50;99.90
16999;DHT22;10211;49.476;11.010;2023-04-03T05:54:02;2.60;99.90
16999;DHT22;10211;49.476;11.010;2023-04-03T05:56:31;2.70;99.90
16999;DHT22;10211;49.476;11.010;2023-04-03T05:58:58;2.80;99.90
16999;DHT22;10211;49.476;11.010;2023-04-03T06:01:24;2.90;99.90
16999;DHT22;10211;49.476;11.010;2023-04-03T06:03:51;3.00;99.90
16999;DHT22;10211;49.476;11.010;2023-04-03T06:06:19;3.00;99.90
16999;DHT22;10211;49.476;11.010;2023-04-03T06:08:48;3.00;99.90
16999;DHT22;10211;49.476;11.010;2023-04-03T06:11:15;3.10;99.90
16999;DHT22;10211;49.476;11.010;2023-04-03T06:13:42;3.10;99.90
16999;DHT22;10211;49.476;11.010;2023-04-03T06:16:10;3.20;99.90
16999;DHT22;10211;49.476;11.010;2023-04-03T06:18:39;3.30;99.90
16999;DHT22;10211;49.476;11.010;2023-04-03T06:21:06;3.40;99.90
16999;DHT22;10211;49.476;11.010;2023-04-03T06:23:33;3.50;99.90
16999;DHT22;10211;49.476;11.010;2023-04-03T06:26:01;3.60;99.90
16999;DHT22;10211;49.476;11.010;2023-04-03T06:28:28;3.70;99.90
16999;DHT22;10211;49.476;11.010;2023-04-03T06:30:55;3.80;99.90
16999;DHT22;10211;49.476;11.010;2023-04-03T06:33:21;3.80;99.90
16999;DHT22;10211;49.476;11.010;2023-04-03T06:35:48;3.90;99.90
16999;DHT22;10211;49.476;11.010;2023-04-03T06:38:15;4.10;99.90
16999;DHT22;10211;49.476;11.010;2023-04-03T06:40:41;4.10;99.90
16999;DHT22;10211;49.476;11.010;2023-04-03T06:43:10;4.20;99.90
16999;DHT22;10211;49.476;11.010;2023-04-03T06:45:37;4.20;99.90
16999;DHT22;10211;49.476;11.010;2023-04-03T06:48:04;4.30;99.90
16999;DHT22;10211;49.476;11.010;2023-04-03T06:50:30;4.30;99.90
16999;DHT22;10211;49.476;11.010;2023-04-03T06:52:57;4.30;99.90
16999;DHT22;10211;49.476;11.010;2023-04-03T06:55:24;4.30;99.90
16999;DHT22;10211;49.476;11.010;2023-04-03T06:57:51;4.30;99.90
16999;DHT22;10211;49.476;11.010;2023-04-03T07:00:20;4.30;99.90
16999;DHT22;10211;49.476;11.010;2023-04-03T07:02:47;4.30;99.90
16999;DHT22;10211;49.476;11.010;2023-04-03T07:05:14;4.40;99.90
16999;DHT22;10211;49.476;11.010;2023-04-03T07:07:40;4.50;99.90
16999;DHT22;10211;49.476;11.010;2023-04-03T07:10:08;4.50;99.90
16999;DHT22;10211;49.476;11.010;2023-04-03T07:12:35;4.50;99.90
16999;DHT22;10211;49.476;11.010;2023-04-03T07:15:03;4.40;99.90
16999;DHT22;10211;49.476;11.010;2023-04-03T07:17:31;4.60;99.90
16999;DHT22;10211;49.476;11.010;2023-04-03T07:19:58;4.80;99.90
16999;DHT22;10211;49.476;11.010;2023-04-03T07:22:25;4.90;99.90
16999;DHT22;10211;49.476;11.010;2023-04-03T07:24:52;4.90;99.90
16999;DHT22;10211;49.476;11.010;2023-04-03T07:27:18;5.00;99.90
16999;DHT22;10211;49.476;11.010;2023-04-03T07:29:45;4.90;99.90
16999;DHT22;10211;49.476;11.010;2023-04-03T07:32:12;5.00;99.90
16999;DHT22;10211;49.476;11.010;2023-04-03T07:34:41;5.00;99.90
16999;DHT22;10211;49.476;11.010;2023-04-03T07:37:07;5.00;99.90
16999;DHT22;10211;49.476;11.010;2023-04-03T07:39:35;5.10;99.90
16999;DHT22;10211;49.476;11.010;2023-04-03T07:42:02;5.20;99.90
16999;DHT22;10211;49.476;11.010;2023-04-03T07:44:28;5.20;99.90
16999;DHT22;10211;49.476;11.010;2023-04-03T07:46:56;5.20;99.90
16999;DHT22;10211;49.476;11.010;2023-04-03T07:49:23;5.20;99.90
16999;DHT22;10211;49.476;11.010;2023-04-03T07:51:51;5.20;99.90
16999;DHT22;10211;49.476;11.010;2023-04-03T07:54:18;5.10;99.90
16999;DHT22;10211;49.476;11.010;2023-04-03T07:56:45;5.30;99.90
16999;DHT22;10211;49.476;11.010;2023-04-03T07:59:11;5.40;99.90
16999;DHT22;10211;49.476;11.010;2023-04-03T08:01:38;5.60;99.90
16999;DHT22;10211;49.476;11.010;2023-04-03T08:04:05;5.70;99.90
16999;DHT22;10211;49.476;11.010;2023-04-03T08:06:32;5.80;99.90
16999;DHT22;10211;49.476;11.010;2023-04-03T08:09:02;5.90;99.90
16999;DHT22;10211;49.476;11.010;2023-04-03T08:11:30;6.20;99.90
16999;DHT22;10211;49.476;11.010;2023-04-03T08:13:57;6.40;99.90
16999;DHT22;10211;49.476;11.010;2023-04-03T08:16:24;6.60;99.90
16999;DHT22;10211;49.476;11.010;2023-04-03T08:18:52;6.90;99.90
16999;DHT22;10211;49.476;11.010;2023-04-03T08:21:19;7.10;99.90
16999;DHT22;10211;49.476;11.010;2023-04-03T08:23:48;7.20;99.80
16999;DHT22;10211;49.476;11.010;2023-04-03T08:26:17;7.30;98.70
16999;DHT22;10211;49.476;11.010;2023-04-03T08:28:45;7.40;98.30
16999;DHT22;10211;49.476;11.010;2023-04-03T08:31:15;7.70;96.70
16999;DHT22;10211;49.476;11.010;2023-04-03T08:33:42;8.40;95.20
16999;DHT22;10211;49.476;11.010;2023-04-03T08:36:17;8.50;93.20
16999;DHT22;10211;49.476;11.010;2023-04-03T08:38:45;8.30;93.10
16999;DHT22;10211;49.476;11.010;2023-04-03T08:41:18;8.20;92.60
16999;DHT22;10211;49.476;11.010;2023-04-03T08:43:57;8.30;92.80
16999;DHT22;10211;49.476;11.010;2023-04-03T08:46:35;8.90;92.80
16999;DHT22;10211;49.476;11.010;2023-04-03T08:49:10;9.70;90.80
16999;DHT22;10211;49.476;11.010;2023-04-03T08:51:41;9.40;87.00
16999;DHT22;10211;49.476;11.010;2023-04-03T08:54:21;8.80;87.90
16999;DHT22;10211;49.476;11.010;2023-04-03T08:56:51;8.30;89.70
16999;DHT22;10211;49.476;11.010;2023-04-03T08:59:24;8.00;90.10
16999;DHT22;10211;49.476;11.010;2023-04-03T09:01:53;7.80;89.40
16999;DHT22;10211;49.476;11.010;2023-04-03T09:04:20;7.50;90.60
16999;DHT22;10211;49.476;11.010;2023-04-03T09:06:50;7.40;90.70
16999;DHT22;10211;49.476;11.010;2023-04-03T09:09:29;7.40;90.50
16999;DHT22;10211;49.476;11.010;2023-04-03T09:12:05;7.40;90.70
16999;DHT22;10211;49.476;11.010;2023-04-03T09:14:39;7.20;91.10
16999;DHT22;10211;49.476;11.010;2023-04-03T09:17:14;7.10;90.90
16999;DHT22;10211;49.476;11.010;2023-04-03T09:19:49;7.10;90.80
16999;DHT22;10211;49.476;11.010;2023-04-03T09:22:21;7.00;90.60
16999;DHT22;10211;49.476;11.010;2023-04-03T09:24:55;7.10;89.20
16999;DHT22;10211;49.476;11.010;2023-04-03T09:27:25;7.10;88.80
16999;DHT22;10211;49.476;11.010;2023-04-03T09:29:54;7.20;89.90
16999;DHT22;10211;49.476;11.010;2023-04-03T09:32:26;7.20;87.40
16999;DHT22;10211;49.476;11.010;2023-04-03T09:34:55;7.10;87.10
16999;DHT22;10211;49.476;11.010;2023-04-03T09:37:37;7.20;86.50
16999;DHT22;10211;49.476;11.010;2023-04-03T09:40:12;7.20;87.10
16999;DHT22;10211;49.476;11.010;2023-04-03T09:42:56;7.30;86.10
16999;DHT22;10211;49.476;11.010;2023-04-03T09:45:25;7.30;85.50
16999;DHT22;10211;49.476;11.010;2023-04-03T09:48:05;7.30;85.00
16999;DHT22;10211;49.476;11.010;2023-04-03T09:50:32;7.60;85.30
16999;DHT22;10211;49.476;11.010;2023-04-03T09:53:05;7.90;84.10
16999;DHT22;10211;49.476;11.010;2023-04-03T09:55:32;8.00;84.10
16999;DHT22;10211;49.476;11.010;2023-04-03T09:58:01;8.30;84.50
16999;DHT22;10211;49.476;11.010;2023-04-03T10:00:33;9.20;81.20
16999;DHT22;10211;49.476;11.010;2023-04-03T10:03:00;10.60;79.10
16999;DHT22;10211;49.476;11.010;2023-04-03T10:05:33;11.10;76.40
16999;DHT22;10211;49.476;11.010;2023-04-03T10:08:15;14.30;69.70
16999;DHT22;10211;49.476;11.010;2023-04-03T10:10:47;17.60;60.30
16999;DHT22;10211;49.476;11.010;2023-04-03T10:13:17;20.20;51.60
16999;DHT22;10211;49.476;11.010;2023-04-03T10:15:50;20.50;44.10
16999;DHT22;10211;49.476;11.010;2023-04-03T10:18:29;19.30;44.70
16999;DHT22;10211;49.476;11.010;2023-04-03T10:21:02;17.60;48.80
16999;DHT22;10211;49.476;11.010;2023-04-03T10:23:39;15.80;51.20
16999;DHT22;10211;49.476;11.010;2023-04-03T10:26:16;15.30;51.80
16999;DHT22;10211;49.476;11.010;2023-04-03T10:28:48;14.90;52.20
16999;DHT22;10211;49.476;11.010;2023-04-03T10:31:22;14.10;52.30
16999;DHT22;10211;49.476;11.010;2023-04-03T10:33:57;13.20;53.90
16999;DHT22;10211;49.476;11.010;2023-04-03T10:36:33;13.40;55.50
16999;DHT22;10211;49.476;11.010;2023-04-03T10:39:11;13.70;55.00
16999;DHT22;10211;49.476;11.010;2023-04-03T10:41:48;12.80;56.20
16999;DHT22;10211;49.476;11.010;2023-04-03T10:44:27;12.00;57.90
16999;DHT22;10211;49.476;11.010;2023-04-03T10:47:02;11.10;59.20
16999;DHT22;10211;49.476;11.010;2023-04-03T10:49:41;10.50;61.70
16999;DHT22;10211;49.476;11.010;2023-04-03T10:52:16;10.20;63.20
16999;DHT22;10211;49.476;11.010;2023-04-03T10:54:48;11.90;62.50
16999;DHT22;10211;49.476;11.010;2023-04-03T10:57:18;12.50;57.50
16999;DHT22;10211;49.476;11.010;2023-04-03T10:59:50;12.20;57.80
16999;DHT22;10211;49.476;11.010;2023-04-03T11:02:23;12.50;59.20
16999;DHT22;10211;49.476;11.010;2023-04-03T11:04:55;13.00;57.30
16999;DHT22;10211;49.476;11.010;2023-04-03T11:07:26;12.40;56.20
16999;DHT22;10211;49.476;11.010;2023-04-03T11:09:56;11.50;57.00
16999;DHT22;10211;49.476;11.010;2023-04-03T11:12:39;10.90;58.80
16999;DHT22;10211;49.476;11.010;2023-04-03T11:15:13;10.40;57.90
16999;DHT22;10211;49.476;11.010;2023-04-03T11:17:46;10.20;58.60
16999;DHT22;10211;49.476;11.010;2023-04-03T11:20:18;11.00;59.30
16999;DHT22;10211;49.476;11.010;2023-04-03T11:22:50;14.80;56.10
16999;DHT22;10211;49.476;11.010;2023-04-03T11:25:20;18.70;49.50
16999;DHT22;10211;49.476;11.010;2023-04-03T11:27:51;21.60;44.80
16999;DHT22;10211;49.476;11.010;2023-04-03T11:30:24;22.00;41.50
16999;DHT22;10211;49.476;11.010;2023-04-03T11:33:13;19.10;42.40
16999;DHT22;10211;49.476;11.010;2023-04-03T11:35:43;15.60;47.20
16999;DHT22;10211;49.476;11.010;2023-04-03T11:38:18;13.20;51.90
16999;DHT22;10211;49.476;11.010;2023-04-03T11:40:47;13.30;52.60
16999;DHT22;10211;49.476;11.010;2023-04-03T11:43:22;15.10;52.60
16999;DHT22;10211;49.476;11.010;2023-04-03T11:45:54;16.90;49.60
16999;DHT22;10211;49.476;11.010;2023-04-03T11:48:49;16.70;47.20
16999;DHT22;10211;49.476;11.010;2023-04-03T11:51:40;14.90;49.90
16999;DHT22;10211;49.476;11.010;2023-04-03T11:54:42;13.20;52.00
16999;DHT22;10211;49.476;11.010;2023-04-03T11:58:02;12.70;53.70
16999;DHT22;10211;49.476;11.010;2023-04-03T12:00:53;13.80;52.20
16999;DHT22;10211;49.476;11.010;2023-04-03T12:03:32;16.20;49.50
16999;DHT22;10211;49.476;11.010;2023-04-03T12:09:23;15.60;47.20
16999;DHT22;10211;49.476;11.010;2023-04-03T12:11:51;15.50;48.60
16999;DHT22;10211;49.476;11.010;2023-04-03T12:14:18;17.60;47.50
16999;DHT22;10211;49.476;11.010;2023-04-03T12:16:49;20.00;44.90
16999;DHT22;10211;49.476;11.010;2023-04-03T12:19:35;19.90;43.40
16999;DHT22;10211;49.476;11.010;2023-04-03T12:22:11;18.50;44.40
16999;DHT22;10211;49.476;11.010;2023-04-03T12:24:39;16.00;47.10
16999;DHT22;10211;49.476;11.010;2023-04-03T12:27:28;14.10;48.70
16999;DHT22;10211;49.476;11.010;2023-04-03T12:30:05;12.60;50.60
16999;DHT22;10211;49.476;11.010;2023-04-03T12:32:44;12.20;53.70
16999;DHT22;10211;49.476;11.010;2023-04-03T12:35:21;12.70;53.70
16999;DHT22;10211;49.476;11.010;2023-04-03T12:41:07;14.30;52.20
16999;DHT22;10211;49.476;11.010;2023-04-03T12:43:47;14.30;51.10
16999;DHT22;10211;49.476;11.010;2023-04-03T12:46:19;14.30;50.50
16999;DHT22;10211;49.476;11.010;2023-04-03T12:48:51;14.30;50.00
16999;DHT22;10211;49.476;11.010;2023-04-03T12:51:21;14.70;50.90
16999;DHT22;10211;49.476;11.010;2023-04-03T12:53:51;15.60;50.00
16999;DHT22;10211;49.476;11.010;2023-04-03T12:56:24;16.60;47.80
16999;DHT22;10211;49.476;11.010;2023-04-03T12:58:53;17.80;47.10
16999;DHT22;10211;49.476;11.010;2023-04-03T13:01:21;17.70;44.70
16999;DHT22;10211;49.476;11.010;2023-04-03T13:03:53;16.10;45.60
16999;DHT22;10211;49.476;11.010;2023-04-03T13:06:23;15.10;48.90
16999;DHT22;10211;49.476;11.010;2023-04-03T13:08:51;15.80;49.60
16999;DHT22;10211;49.476;11.010;2023-04-03T13:11:20;16.90;47.70
16999;DHT22;10211;49.476;11.010;2023-04-03T13:13:55;17.40;46.30
16999;DHT22;10211;49.476;11.010;2023-04-03T13:16:22;16.30;46.90
16999;DHT22;10211;49.476;11.010;2023-04-03T13:18:53;14.30;49.10
16999;DHT22;10211;49.476;11.010;2023-04-03T13:21:23;12.90;51.90
16999;DHT22;10211;49.476;11.010;2023-04-03T13:23:52;12.00;53.70
16999;DHT22;10211;49.476;11.010;2023-04-03T13:26:21;11.20;55.20
16999;DHT22;10211;49.476;11.010;2023-04-03T13:28:49;11.00;56.80
16999;DHT22;10211;49.476;11.010;2023-04-03T13:31:21;11.80;55.50
16999;DHT22;10211;49.476;11.010;2023-04-03T13:33:57;11.90;55.40
16999;DHT22;10211;49.476;11.010;2023-04-03T13:36:27;12.00;55.10
16999;DHT22;10211;49.476;11.010;2023-04-03T13:39:00;11.90;55.60
16999;DHT22;10211;49.476;11.010;2023-04-03T13:41:30;12.00;55.30
16999;DHT22;10211;49.476;11.010;2023-04-03T13:44:15;12.30;55.30
16999;DHT22;10211;49.476;11.010;2023-04-03T13:46:42;12.40;54.70
16999;DHT22;10211;49.476;11.010;2023-04-03T13:49:20;12.20;54.20
16999;DHT22;10211;49.476;11.010;2023-04-03T13:51:47;12.10;54.20
16999;DHT22;10211;49.476;11.010;2023-04-03T13:54:19;11.80;54.50
16999;DHT22;10211;49.476;11.010;2023-04-03T13:56:46;11.50;56.20
16999;DHT22;10211;49.476;11.010;2023-04-03T13:59:24;11.30;56.80
16999;DHT22;10211;49.476;11.010;2023-04-03T14:01:55;11.30;57.30
16999;DHT22;10211;49.476;11.010;2023-04-03T14:04:47;11.00;57.60
16999;DHT22;10211;49.476;11.010;2023-04-03T14:07:16;10.30;56.30
16999;DHT22;10211;49.476;11.010;2023-04-03T14:09:45;9.80;58.50
16999;DHT22;10211;49.476;11.010;2023-04-03T14:12:16;9.30;59.30
16999;DHT22;10211;49.476;11.010;2023-04-03T14:14:43;9.00;60.00
16999;DHT22;10211;49.476;11.010;2023-04-03T14:17:14;8.90;61.00
16999;DHT22;10211;49.476;11.010;2023-04-03T14:19:42;8.80;60.30
16999;DHT22;10211;49.476;11.010;2023-04-03T14:22:15;9.00;60.40
16999;DHT22;10211;49.476;11.010;2023-04-03T14:24:42;9.20;60.00
16999;DHT22;10211;49.476;11.010;2023-04-03T14:27:16;9.40;59.30
16999;DHT22;10211;49.476;11.010;2023-04-03T14:29:43;9.50;60.30
16999;DHT22;10211;49.476;11.010;2023-04-03T14:32:11;9.60;59.70
16999;DHT22;10211;49.476;11.010;2023-04-03T14:34:38;9.50;59.50
16999;DHT22;10211;49.476;11.010;2023-04-03T14:37:10;9.30;59.80
16999;DHT22;10211;49.476;11.010;2023-04-03T14:39:37;9.30;60.80
16999;DHT22;10211;49.476;11.010;2023-04-03T14:42:04;9.30;60.50
16999;DHT22;10211;49.476;11.010;2023-04-03T14:44:31;9.30;60.40
16999;DHT22;10211;49.476;11.010;2023-04-03T14:46:57;9.40;60.70
16999;DHT22;10211;49.476;11.010;2023-04-03T14:49:27;9.60;60.10
16999;DHT22;10211;49.476;11.010;2023-04-03T14:51:55;9.70;60.60
16999;DHT22;10211;49.476;11.010;2023-04-03T14:54:23;9.70;59.70
16999;DHT22;10211;49.476;11.010;2023-04-03T14:56:53;9.50;59.70
16999;DHT22;10211;49.476;11.010;2023-04-03T14:59:21;9.40;60.60
16999;DHT22;10211;49.476;11.010;2023-04-03T15:01:49;9.20;60.80
16999;DHT22;10211;49.476;11.010;2023-04-03T15:04:17;9.00;61.20
16999;DHT22;10211;49.476;11.010;2023-04-03T15:06:45;8.90;61.60
16999;DHT22;10211;49.476;11.010;2023-04-03T15:09:19;8.70;61.30
16999;DHT22;10211;49.476;11.010;2023-04-03T15:11:48;8.60;61.00
16999;DHT22;10211;49.476;11.010;2023-04-03T15:14:16;8.60;60.50
16999;DHT22;10211;49.476;11.010;2023-04-03T15:16:43;8.70;61.00
16999;DHT22;10211;49.476;11.010;2023-04-03T15:19:09;8.70;61.30
16999;DHT22;10211;49.476;11.010;2023-04-03T15:21:37;8.80;61.40
16999;DHT22;10211;49.476;11.010;2023-04-03T15:24:04;8.80;61.20
16999;DHT22;10211;49.476;11.010;2023-04-03T15:26:31;8.70;60.40
16999;DHT22;10211;49.476;11.010;2023-04-03T15:28:59;8.60;61.60
16999;DHT22;10211;49.476;11.010;2023-04-03T15:31:27;8.50;61.80
16999;DHT22;10211;49.476;11.010;2023-04-03T15:33:54;8.50;62.20
16999;DHT22;10211;49.476;11.010;2023-04-03T15:36:20;8.40;62.00
16999;DHT22;10211;49.476;11.010;2023-04-03T15:38:47;8.10;62.20
16999;DHT22;10211;49.476;11.010;2023-04-03T15:41:14;7.90;62.10
16999;DHT22;10211;49.476;11.010;2023-04-03T15:43:40;7.70;62.40
16999;DHT22;10211;49.476;11.010;2023-04-03T15:46:08;7.70;63.40
16999;DHT22;10211;49.476;11.010;2023-04-03T15:48:36;7.80;63.70
16999;DHT22;10211;49.476;11.010;2023-04-03T15:51:03;8.00;63.10
16999;DHT22;10211;49.476;11.010;2023-04-03T15:53:30;8.10;63.10
16999;DHT22;10211;49.476;11.010;2023-04-03T15:55:56;8.10;62.30